Disclaimer

    

CYXX

METAR CYXX 201200Z 01010KT 330V060 10SM -RA BKN050 OVC060 03/02 A2992 RMK SC5SC3 SLP137=

SPECI CYXX 201147Z 01005KT 310V020 10SM -RA SCT050 OVC060 03/02 A2993 RMK SC5SC3 SLP138=

METAR CYXX 201100Z 01006KT 10SM OVC063 03/02 A2992 RMK SC8 SLP135=

METAR CYXX 201000Z 02005KT 15SM OVC100 03/02 A2992 RMK AC8 SLP135=

TAF CYXX 201138Z 2012/2112 06006KT P6SM SCT040 OVC080 TEMPO 2012/2016 P6SM -SHRA SCT006 OVC040
FM201600 04010KT P6SM -RA SCT006 SCT020 OVC040 TEMPO 2016/2102 4SM -RA BR SCT006 OVC020 PROB30 2016/2020 2SM -RA BR OVC006
FM210200 05008KT P6SM FEW020 BKN080 OVC200
FM211000 04010KT P6SM BKN060 OVC120 RMK NXT FCST BY 201800Z=

CYCD

LWIS CYCD 201200Z AUTO 00000KT 02/02 A2988=

LWIS CYCD 201100Z AUTO 00000KT 02/02 A2988=

LWIS CYCD 201000Z AUTO VRB02KT 03/03 A2990=

TAF CYCD 192338Z 2000/2005 VRB03KT 1/2SM -RA FG VV005 TEMPO 2000/2005 5SM -DZ BR SCT005 BKN015 RMK NXT FCST WILL BE ISSUED AT 201545Z=

CYVR

METAR CYVR 201200Z 09005KT 15SM -RA BKN045 OVC078 06/05 A2989 RMK SC5AC3 SLP123=

METAR CYVR 201100Z 12006KT 15SM -RA SCT047 OVC066 06/05 A2993 RMK SC3AC5 PRESRR SLP135=

METAR CYVR 201000Z 06003KT 040V110 15SM -RA FEW061 OVC074 06/05 A2992 RMK SC1AC7 SLP133=

TAF CYVR 201138Z 2012/2118 08006KT P6SM SCT040 OVC080 TEMPO 2012/2015 P6SM -SHRA SCT006 OVC040
FM201500 08010KT P6SM -RA SCT006 SCT020 OVC040 TEMPO 2015/2102 4SM -RA BR SCT006 OVC020 PROB30 2015/2020 2SM -RA BR OVC006
FM210200 09008KT P6SM FEW020 BKN080 OVC200
FM211100 10015KT P6SM -RA OVC040 TEMPO 2111/2118 4SM -RA BR OVC020 RMK NXT FCST BY 201500Z=

Supplemental information

Lower mainland ATIS: 1-877-517-2847

CZBB (Boundary Bay) current winds

Upper winds (Vancouver)

Data fromValid at300060009000
20000020060014161632+021834-03
20000020120016331826+012139-05
20000021000015131611-011919-06

NOTAMs

Ten newest NOTAMs per file () are highlighted.